sensor_id;sensor_type;location;lat;lon;timestamp;temperature;humidity
48912;DHT22;34722;52.108;5.044;2023-04-28T00:01:31;9.80;99.90
48912;DHT22;34722;52.108;5.044;2023-04-28T00:03:56;9.80;99.90
48912;DHT22;34722;52.108;5.044;2023-04-28T00:06:23;9.80;99.90
48912;DHT22;34722;52.108;5.044;2023-04-28T00:08:48;9.80;99.90
48912;DHT22;34722;52.108;5.044;2023-04-28T00:11:14;9.80;99.90
48912;DHT22;34722;52.108;5.044;2023-04-28T00:13:40;9.70;99.90
48912;DHT22;34722;52.108;5.044;2023-04-28T00:16:06;9.70;99.90
48912;DHT22;34722;52.108;5.044;2023-04-28T00:18:32;9.70;99.90
48912;DHT22;34722;52.108;5.044;2023-04-28T00:20:58;9.70;99.90
48912;DHT22;34722;52.108;5.044;2023-04-28T00:23:23;9.60;99.90
48912;DHT22;34722;52.108;5.044;2023-04-28T00:25:53;9.60;99.90
48912;DHT22;34722;52.108;5.044;2023-04-28T00:28:18;9.60;1.00
48912;DHT22;34722;52.108;5.044;2023-04-28T00:30:45;9.50;1.00
48912;DHT22;34722;52.108;5.044;2023-04-28T00:33:11;9.50;1.00
48912;DHT22;34722;52.108;5.044;2023-04-28T00:35:38;9.50;1.00
48912;DHT22;34722;52.108;5.044;2023-04-28T00:38:03;9.50;1.00
48912;DHT22;34722;52.108;5.044;2023-04-28T00:40:33;9.50;1.00
48912;DHT22;34722;52.108;5.044;2023-04-28T00:42:59;9.50;1.00
48912;DHT22;34722;52.108;5.044;2023-04-28T00:45:24;9.40;1.00
48912;DHT22;34722;52.108;5.044;2023-04-28T00:47:50;9.40;1.00
48912;DHT22;34722;52.108;5.044;2023-04-28T00:50:15;9.40;1.00
48912;DHT22;34722;52.108;5.044;2023-04-28T00:52:42;9.40;1.00
48912;DHT22;34722;52.108;5.044;2023-04-28T00:55:08;9.40;1.00
48912;DHT22;34722;52.108;5.044;2023-04-28T00:57:35;9.40;1.00
48912;DHT22;34722;52.108;5.044;2023-04-28T01:00:02;9.40;1.00
48912;DHT22;34722;52.108;5.044;2023-04-28T01:02:28;9.40;1.00
48912;DHT22;34722;52.108;5.044;2023-04-28T01:04:56;9.40;1.00
48912;DHT22;34722;52.108;5.044;2023-04-28T01:07:22;9.40;1.00
48912;DHT22;34722;52.108;5.044;2023-04-28T01:09:47;9.30;1.00
48912;DHT22;34722;52.108;5.044;2023-04-28T01:12:13;9.40;1.00
48912;DHT22;34722;52.108;5.044;2023-04-28T01:14:39;9.40;1.00
48912;DHT22;34722;52.108;5.044;2023-04-28T01:17:05;9.40;1.00
48912;DHT22;34722;52.108;5.044;2023-04-28T01:19:32;9.40;1.00
48912;DHT22;34722;52.108;5.044;2023-04-28T01:21:57;9.40;1.00
48912;DHT22;34722;52.108;5.044;2023-04-28T01:24:23;9.30;1.00
48912;DHT22;34722;52.108;5.044;2023-04-28T01:26:49;9.40;1.00
48912;DHT22;34722;52.108;5.044;2023-04-28T01:29:14;9.40;1.00
48912;DHT22;34722;52.108;5.044;2023-04-28T01:31:40;9.40;1.00
48912;DHT22;34722;52.108;5.044;2023-04-28T01:34:06;9.30;1.00
48912;DHT22;34722;52.108;5.044;2023-04-28T01:36:31;9.40;1.00
48912;DHT22;34722;52.108;5.044;2023-04-28T01:38:57;9.30;1.00
48912;DHT22;34722;52.108;5.044;2023-04-28T01:41:23;9.40;1.00
48912;DHT22;34722;52.108;5.044;2023-04-28T01:43:48;9.30;1.00
48912;DHT22;34722;52.108;5.044;2023-04-28T01:46:14;9.40;1.00
48912;DHT22;34722;52.108;5.044;2023-04-28T01:48:40;9.30;1.00
48912;DHT22;34722;52.108;5.044;2023-04-28T01:51:05;9.30;1.00
48912;DHT22;34722;52.108;5.044;2023-04-28T01:53:31;9.30;1.00
48912;DHT22;34722;52.108;5.044;2023-04-28T01:55:56;9.30;1.00
48912;DHT22;34722;52.108;5.044;2023-04-28T01:58:23;9.30;1.00
48912;DHT22;34722;52.108;5.044;2023-04-28T02:00:49;9.30;1.00
48912;DHT22;34722;52.108;5.044;2023-04-28T02:03:14;9.30;1.00
48912;DHT22;34722;52.108;5.044;2023-04-28T02:05:40;9.30;1.00
48912;DHT22;34722;52.108;5.044;2023-04-28T02:08:06;9.30;1.00
48912;DHT22;34722;52.108;5.044;2023-04-28T02:10:31;9.30;1.00
48912;DHT22;34722;52.108;5.044;2023-04-28T02:12:57;9.30;1.00
48912;DHT22;34722;52.108;5.044;2023-04-28T02:15:22;9.30;1.00
48912;DHT22;34722;52.108;5.044;2023-04-28T02:17:49;9.30;1.00
48912;DHT22;34722;52.108;5.044;2023-04-28T02:20:14;9.30;1.00
48912;DHT22;34722;52.108;5.044;2023-04-28T02:22:44;9.30;1.10
48912;DHT22;34722;52.108;5.044;2023-04-28T02:25:09;9.30;1.00
48912;DHT22;34722;52.108;5.044;2023-04-28T02:27:35;9.20;1.00
48912;DHT22;34722;52.108;5.044;2023-04-28T02:30:05;9.30;1.00
48912;DHT22;34722;52.108;5.044;2023-04-28T02:32:31;9.20;1.00
48912;DHT22;34722;52.108;5.044;2023-04-28T02:34:57;9.30;1.00
48912;DHT22;34722;52.108;5.044;2023-04-28T02:37:23;9.20;1.00
48912;DHT22;34722;52.108;5.044;2023-04-28T02:39:49;9.20;1.00
48912;DHT22;34722;52.108;5.044;2023-04-28T02:42:15;9.20;1.00
48912;DHT22;34722;52.108;5.044;2023-04-28T02:44:44;9.20;1.00
48912;DHT22;34722;52.108;5.044;2023-04-28T02:47:10;9.20;1.00
48912;DHT22;34722;52.108;5.044;2023-04-28T02:49:36;9.20;2.30
48912;DHT22;34722;52.108;5.044;2023-04-28T02:52:02;9.20;10.70
48912;DHT22;34722;52.108;5.044;2023-04-28T02:54:27;9.10;8.60
48912;DHT22;34722;52.108;5.044;2023-04-28T02:56:54;9.10;9.30
48912;DHT22;34722;52.108;5.044;2023-04-28T02:59:21;9.10;20.30
48912;DHT22;34722;52.108;5.044;2023-04-28T03:01:47;9.10;19.10
48912;DHT22;34722;52.108;5.044;2023-04-28T03:04:13;9.10;27.50
48912;DHT22;34722;52.108;5.044;2023-04-28T03:06:39;9.10;25.50
48912;DHT22;34722;52.108;5.044;2023-04-28T03:09:06;9.10;46.70
48912;DHT22;34722;52.108;5.044;2023-04-28T03:11:32;9.10;46.60
48912;DHT22;34722;52.108;5.044;2023-04-28T03:13:58;9.10;60.00
48912;DHT22;34722;52.108;5.044;2023-04-28T03:16:23;9.10;74.30
48912;DHT22;34722;52.108;5.044;2023-04-28T03:18:49;9.10;55.90
48912;DHT22;34722;52.108;5.044;2023-04-28T03:21:15;9.10;66.90
48912;DHT22;34722;52.108;5.044;2023-04-28T03:23:42;9.10;99.90
48912;DHT22;34722;52.108;5.044;2023-04-28T03:26:15;9.10;99.90
48912;DHT22;34722;52.108;5.044;2023-04-28T03:28:44;9.10;99.90
48912;DHT22;34722;52.108;5.044;2023-04-28T03:31:10;9.10;99.90
48912;DHT22;34722;52.108;5.044;2023-04-28T03:33:36;9.10;99.90
48912;DHT22;34722;52.108;5.044;2023-04-28T03:36:02;9.10;99.90
48912;DHT22;34722;52.108;5.044;2023-04-28T03:38:28;9.10;99.90
48912;DHT22;34722;52.108;5.044;2023-04-28T03:40:53;9.10;99.90
48912;DHT22;34722;52.108;5.044;2023-04-28T03:43:19;9.10;99.90
48912;DHT22;34722;52.108;5.044;2023-04-28T03:45:45;9.10;99.90
48912;DHT22;34722;52.108;5.044;2023-04-28T03:48:11;9.00;99.90
48912;DHT22;34722;52.108;5.044;2023-04-28T03:50:37;9.00;99.90
48912;DHT22;34722;52.108;5.044;2023-04-28T03:53:05;9.00;99.90
48912;DHT22;34722;52.108;5.044;2023-04-28T03:55:31;9.10;99.90
48912;DHT22;34722;52.108;5.044;2023-04-28T03:57:57;9.00;99.90
48912;DHT22;34722;52.108;5.044;2023-04-28T04:00:23;9.00;99.90
48912;DHT22;34722;52.108;5.044;2023-04-28T04:02:49;9.10;99.90
48912;DHT22;34722;52.108;5.044;2023-04-28T04:05:15;9.10;99.90
48912;DHT22;34722;52.108;5.044;2023-04-28T04:07:40;9.10;99.90
48912;DHT22;34722;52.108;5.044;2023-04-28T04:10:08;9.10;99.90
48912;DHT22;34722;52.108;5.044;2023-04-28T04:12:34;9.20;1.00
48912;DHT22;34722;52.108;5.044;2023-04-28T04:15:00;9.20;1.00
48912;DHT22;34722;52.108;5.044;2023-04-28T04:17:26;9.20;1.00
48912;DHT22;34722;52.108;5.044;2023-04-28T04:19:51;9.20;1.00
48912;DHT22;34722;52.108;5.044;2023-04-28T04:22:17;9.20;1.00
48912;DHT22;34722;52.108;5.044;2023-04-28T04:24:43;9.20;1.00
48912;DHT22;34722;52.108;5.044;2023-04-28T04:27:08;9.20;1.00
48912;DHT22;34722;52.108;5.044;2023-04-28T04:29:34;9.20;1.00
48912;DHT22;34722;52.108;5.044;2023-04-28T04:32:00;9.30;24.50
48912;DHT22;34722;52.108;5.044;2023-04-28T04:34:26;9.30;67.30
48912;DHT22;34722;52.108;5.044;2023-04-28T04:36:52;9.30;99.90
48912;DHT22;34722;52.108;5.044;2023-04-28T04:39:17;9.30;99.90
48912;DHT22;34722;52.108;5.044;2023-04-28T04:41:43;9.30;99.90
48912;DHT22;34722;52.108;5.044;2023-04-28T04:44:09;9.30;99.90
48912;DHT22;34722;52.108;5.044;2023-04-28T04:46:35;9.30;99.90
48912;DHT22;34722;52.108;5.044;2023-04-28T04:49:00;9.30;99.90
48912;DHT22;34722;52.108;5.044;2023-04-28T04:51:26;9.30;1.00
48912;DHT22;34722;52.108;5.044;2023-04-28T04:53:52;9.30;1.00
48912;DHT22;34722;52.108;5.044;2023-04-28T04:56:18;9.40;1.00
48912;DHT22;34722;52.108;5.044;2023-04-28T04:58:43;9.30;2.10
48912;DHT22;34722;52.108;5.044;2023-04-28T05:01:09;9.40;99.90
48912;DHT22;34722;52.108;5.044;2023-04-28T05:03:35;9.30;99.90
48912;DHT22;34722;52.108;5.044;2023-04-28T05:06:00;9.40;99.90
48912;DHT22;34722;52.108;5.044;2023-04-28T05:08:27;9.40;99.90
48912;DHT22;34722;52.108;5.044;2023-04-28T05:10:53;9.40;19.80
48912;DHT22;34722;52.108;5.044;2023-04-28T05:13:19;9.40;99.90
48912;DHT22;34722;52.108;5.044;2023-04-28T05:15:45;9.20;1.00
48912;DHT22;34722;52.108;5.044;2023-04-28T05:18:11;9.00;1.00
48912;DHT22;34722;52.108;5.044;2023-04-28T05:20:38;8.90;1.00
48912;DHT22;34722;52.108;5.044;2023-04-28T05:23:04;8.90;12.70
48912;DHT22;34722;52.108;5.044;2023-04-28T05:25:31;8.90;45.20
48912;DHT22;34722;52.108;5.044;2023-04-28T05:27:57;8.70;90.30
48912;DHT22;34722;52.108;5.044;2023-04-28T05:30:23;8.60;99.10
48912;DHT22;34722;52.108;5.044;2023-04-28T05:32:52;8.50;99.90
48912;DHT22;34722;52.108;5.044;2023-04-28T05:35:18;8.50;99.90
48912;DHT22;34722;52.108;5.044;2023-04-28T05:37:45;8.40;99.90
48912;DHT22;34722;52.108;5.044;2023-04-28T05:40:11;8.50;99.90
48912;DHT22;34722;52.108;5.044;2023-04-28T05:42:37;8.50;99.90
48912;DHT22;34722;52.108;5.044;2023-04-28T05:45:04;8.50;99.90
48912;DHT22;34722;52.108;5.044;2023-04-28T05:47:31;8.70;99.90
48912;DHT22;34722;52.108;5.044;2023-04-28T05:49:57;8.80;99.90
48912;DHT22;34722;52.108;5.044;2023-04-28T05:52:22;9.00;99.40
48912;DHT22;34722;52.108;5.044;2023-04-28T05:54:48;9.10;91.80
48912;DHT22;34722;52.108;5.044;2023-04-28T05:57:14;9.20;92.40
48912;DHT22;34722;52.108;5.044;2023-04-28T05:59:40;9.20;52.70
48912;DHT22;34722;52.108;5.044;2023-04-28T06:02:06;9.20;45.70
48912;DHT22;34722;52.108;5.044;2023-04-28T06:04:31;9.30;52.30
48912;DHT22;34722;52.108;5.044;2023-04-28T06:06:57;9.30;48.20
48912;DHT22;34722;52.108;5.044;2023-04-28T06:09:23;9.30;53.00
48912;DHT22;34722;52.108;5.044;2023-04-28T06:11:48;9.30;56.60
48912;DHT22;34722;52.108;5.044;2023-04-28T06:14:15;9.30;99.90
48912;DHT22;34722;52.108;5.044;2023-04-28T06:16:41;9.20;99.90
48912;DHT22;34722;52.108;5.044;2023-04-28T06:19:19;8.90;99.90
48912;DHT22;34722;52.108;5.044;2023-04-28T06:21:45;8.70;99.90
48912;DHT22;34722;52.108;5.044;2023-04-28T06:24:11;8.60;99.90
48912;DHT22;34722;52.108;5.044;2023-04-28T06:26:36;8.60;99.90
48912;DHT22;34722;52.108;5.044;2023-04-28T06:29:02;8.60;99.90
48912;DHT22;34722;52.108;5.044;2023-04-28T06:31:28;8.60;99.90
48912;DHT22;34722;52.108;5.044;2023-04-28T06:33:54;8.70;99.90
48912;DHT22;34722;52.108;5.044;2023-04-28T06:36:19;8.80;99.90
48912;DHT22;34722;52.108;5.044;2023-04-28T06:38:45;8.80;99.90
48912;DHT22;34722;52.108;5.044;2023-04-28T06:41:11;8.90;99.90
48912;DHT22;34722;52.108;5.044;2023-04-28T06:43:37;8.90;99.90
48912;DHT22;34722;52.108;5.044;2023-04-28T06:46:03;9.00;99.90
48912;DHT22;34722;52.108;5.044;2023-04-28T06:48:29;9.00;99.90
48912;DHT22;34722;52.108;5.044;2023-04-28T06:50:54;9.10;99.90
48912;DHT22;34722;52.108;5.044;2023-04-28T06:53:20;9.20;99.90
48912;DHT22;34722;52.108;5.044;2023-04-28T06:55:46;9.40;99.90
48912;DHT22;34722;52.108;5.044;2023-04-28T06:58:11;9.50;99.90
48912;DHT22;34722;52.108;5.044;2023-04-28T07:00:37;9.60;99.90
48912;DHT22;34722;52.108;5.044;2023-04-28T07:03:06;9.70;99.90
48912;DHT22;34722;52.108;5.044;2023-04-28T07:05:32;9.70;99.90
48912;DHT22;34722;52.108;5.044;2023-04-28T07:07:58;9.80;99.90
48912;DHT22;34722;52.108;5.044;2023-04-28T07:10:24;9.90;99.90
48912;DHT22;34722;52.108;5.044;2023-04-28T07:12:50;10.00;99.90
48912;DHT22;34722;52.108;5.044;2023-04-28T07:15:18;10.10;99.90
48912;DHT22;34722;52.108;5.044;2023-04-28T07:17:50;10.10;99.90
48912;DHT22;34722;52.108;5.044;2023-04-28T07:20:16;10.20;99.90
48912;DHT22;34722;52.108;5.044;2023-04-28T07:22:44;10.20;99.90
48912;DHT22;34722;52.108;5.044;2023-04-28T07:25:10;10.30;99.90
48912;DHT22;34722;52.108;5.044;2023-04-28T07:27:35;10.50;99.90
48912;DHT22;34722;52.108;5.044;2023-04-28T07:30:02;10.50;99.90
48912;DHT22;34722;52.108;5.044;2023-04-28T07:32:27;10.50;99.90
48912;DHT22;34722;52.108;5.044;2023-04-28T07:34:53;10.50;99.90
48912;DHT22;34722;52.108;5.044;2023-04-28T07:37:19;10.40;99.90
48912;DHT22;34722;52.108;5.044;2023-04-28T07:39:44;10.50;99.90
48912;DHT22;34722;52.108;5.044;2023-04-28T07:42:10;10.50;99.90
48912;DHT22;34722;52.108;5.044;2023-04-28T07:44:37;10.50;99.90
48912;DHT22;34722;52.108;5.044;2023-04-28T07:47:03;10.50;99.90
48912;DHT22;34722;52.108;5.044;2023-04-28T07:49:29;10.60;99.90
48912;DHT22;34722;52.108;5.044;2023-04-28T07:51:55;10.70;99.90
48912;DHT22;34722;52.108;5.044;2023-04-28T07:54:22;10.70;99.90
48912;DHT22;34722;52.108;5.044;2023-04-28T07:56:48;10.70;99.90
48912;DHT22;34722;52.108;5.044;2023-04-28T07:59:14;10.70;99.90
48912;DHT22;34722;52.108;5.044;2023-04-28T08:01:40;10.70;99.90
48912;DHT22;34722;52.108;5.044;2023-04-28T08:04:08;10.50;99.90
48912;DHT22;34722;52.108;5.044;2023-04-28T08:06:33;10.40;99.90
48912;DHT22;34722;52.108;5.044;2023-04-28T08:09:00;10.40;99.90
48912;DHT22;34722;52.108;5.044;2023-04-28T08:11:26;10.40;99.90
48912;DHT22;34722;52.108;5.044;2023-04-28T08:13:52;10.50;99.90
48912;DHT22;34722;52.108;5.044;2023-04-28T08:16:18;10.60;99.90
48912;DHT22;34722;52.108;5.044;2023-04-28T08:18:43;10.70;99.90
48912;DHT22;34722;52.108;5.044;2023-04-28T08:21:10;10.90;99.90
48912;DHT22;34722;52.108;5.044;2023-04-28T08:23:36;10.90;99.90
48912;DHT22;34722;52.108;5.044;2023-04-28T08:26:02;11.00;99.90
48912;DHT22;34722;52.108;5.044;2023-04-28T08:28:28;11.00;99.90
48912;DHT22;34722;52.108;5.044;2023-04-28T08:30:54;11.00;99.90
48912;DHT22;34722;52.108;5.044;2023-04-28T08:33:20;11.00;99.90
48912;DHT22;34722;52.108;5.044;2023-04-28T08:35:45;11.30;99.90
48912;DHT22;34722;52.108;5.044;2023-04-28T08:38:11;11.30;99.90
48912;DHT22;34722;52.108;5.044;2023-04-28T08:40:39;11.40;99.90
48912;DHT22;34722;52.108;5.044;2023-04-28T08:43:10;11.50;99.90
48912;DHT22;34722;52.108;5.044;2023-04-28T08:45:40;11.60;99.90
48912;DHT22;34722;52.108;5.044;2023-04-28T08:48:17;11.60;99.90
48912;DHT22;34722;52.108;5.044;2023-04-28T08:50:51;11.60;99.90
48912;DHT22;34722;52.108;5.044;2023-04-28T08:53:23;11.70;99.90
48912;DHT22;34722;52.108;5.044;2023-04-28T08:55:55;11.70;99.90
48912;DHT22;34722;52.108;5.044;2023-04-28T08:58:25;11.70;99.90
48912;DHT22;34722;52.108;5.044;2023-04-28T09:00:51;11.70;99.90
48912;DHT22;34722;52.108;5.044;2023-04-28T09:03:18;11.80;99.90
48912;DHT22;34722;52.108;5.044;2023-04-28T09:05:44;11.80;99.90
48912;DHT22;34722;52.108;5.044;2023-04-28T09:08:09;11.90;99.90
48912;DHT22;34722;52.108;5.044;2023-04-28T09:10:36;11.90;99.90
48912;DHT22;34722;52.108;5.044;2023-04-28T09:13:03;11.90;99.90
48912;DHT22;34722;52.108;5.044;2023-04-28T09:17:57;11.90;99.90
48912;DHT22;34722;52.108;5.044;2023-04-28T09:20:25;11.90;99.90
48912;DHT22;34722;52.108;5.044;2023-04-28T09:22:53;12.00;99.90
48912;DHT22;34722;52.108;5.044;2023-04-28T09:25:20;12.00;99.90
48912;DHT22;34722;52.108;5.044;2023-04-28T09:27:50;12.10;99.90
48912;DHT22;34722;52.108;5.044;2023-04-28T09:30:15;12.10;99.90
48912;DHT22;34722;52.108;5.044;2023-04-28T09:32:42;12.20;99.90
48912;DHT22;34722;52.108;5.044;2023-04-28T09:35:11;12.30;99.90
48912;DHT22;34722;52.108;5.044;2023-04-28T09:37:37;12.50;99.90
48912;DHT22;34722;52.108;5.044;2023-04-28T09:40:06;12.50;99.90
48912;DHT22;34722;52.108;5.044;2023-04-28T09:42:35;12.50;99.90
48912;DHT22;34722;52.108;5.044;2023-04-28T09:45:03;12.60;99.90
48912;DHT22;34722;52.108;5.044;2023-04-28T09:47:29;12.70;99.90
48912;DHT22;34722;52.108;5.044;2023-04-28T09:50:01;12.80;99.90
48912;DHT22;34722;52.108;5.044;2023-04-28T09:52:27;12.70;99.90
48912;DHT22;34722;52.108;5.044;2023-04-28T09:54:54;12.70;99.90
48912;DHT22;34722;52.108;5.044;2023-04-28T09:57:21;12.80;99.90
48912;DHT22;34722;52.108;5.044;2023-04-28T09:59:49;12.90;99.90
48912;DHT22;34722;52.108;5.044;2023-04-28T10:02:15;13.00;99.90
48912;DHT22;34722;52.108;5.044;2023-04-28T10:04:48;13.00;99.90
48912;DHT22;34722;52.108;5.044;2023-04-28T10:07:16;13.10;99.90
48912;DHT22;34722;52.108;5.044;2023-04-28T10:09:43;13.20;99.90
48912;DHT22;34722;52.108;5.044;2023-04-28T10:12:19;13.30;99.90
48912;DHT22;34722;52.108;5.044;2023-04-28T10:14:47;13.10;99.90
48912;DHT22;34722;52.108;5.044;2023-04-28T10:17:21;13.10;99.90
48912;DHT22;34722;52.108;5.044;2023-04-28T10:19:48;13.10;99.90
48912;DHT22;34722;52.108;5.044;2023-04-28T10:27:45;13.20;99.90
48912;DHT22;34722;52.108;5.044;2023-04-28T10:30:12;13.30;99.90
48912;DHT22;34722;52.108;5.044;2023-04-28T10:32:39;13.40;99.90
48912;DHT22;34722;52.108;5.044;2023-04-28T10:38:12;13.50;99.90
48912;DHT22;34722;52.108;5.044;2023-04-28T10:40:48;13.50;99.90
48912;DHT22;34722;52.108;5.044;2023-04-28T10:43:32;13.50;99.90
48912;DHT22;34722;52.108;5.044;2023-04-28T10:45:59;13.50;99.90
48912;DHT22;34722;52.108;5.044;2023-04-28T10:56:23;13.80;99.90
48912;DHT22;34722;52.108;5.044;2023-04-28T11:06:28;14.30;99.90
48912;DHT22;34722;52.108;5.044;2023-04-28T11:16:55;14.20;99.90
48912;DHT22;34722;52.108;5.044;2023-04-28T11:19:29;14.20;99.90
48912;DHT22;34722;52.108;5.044;2023-04-28T11:21:57;14.30;99.90
48912;DHT22;34722;52.108;5.044;2023-04-28T11:24:23;14.30;99.90
48912;DHT22;34722;52.108;5.044;2023-04-28T11:26:59;14.30;99.90
48912;DHT22;34722;52.108;5.044;2023-04-28T11:29:36;14.30;99.90
48912;DHT22;34722;52.108;5.044;2023-04-28T11:32:04;14.20;99.90
48912;DHT22;34722;52.108;5.044;2023-04-28T11:34:30;14.40;99.90
48912;DHT22;34722;52.108;5.044;2023-04-28T11:36:57;14.30;99.90
48912;DHT22;34722;52.108;5.044;2023-04-28T11:39:30;14.30;99.90
48912;DHT22;34722;52.108;5.044;2023-04-28T11:41:57;14.40;99.90
48912;DHT22;34722;52.108;5.044;2023-04-28T11:44:30;14.40;99.90
48912;DHT22;34722;52.108;5.044;2023-04-28T11:47:01;14.30;99.90
48912;DHT22;34722;52.108;5.044;2023-04-28T11:49:28;14.20;99.90
48912;DHT22;34722;52.108;5.044;2023-04-28T11:52:05;14.30;99.90
48912;DHT22;34722;52.108;5.044;2023-04-28T11:54:31;14.20;99.90
48912;DHT22;34722;52.108;5.044;2023-04-28T11:56:58;14.30;99.90
48912;DHT22;34722;52.108;5.044;2023-04-28T11:59:30;14.40;99.90
48912;DHT22;34722;52.108;5.044;2023-04-28T12:01:58;14.30;99.90
48912;DHT22;34722;52.108;5.044;2023-04-28T12:04:30;14.30;99.90
48912;DHT22;34722;52.108;5.044;2023-04-28T12:07:05;14.50;99.90
48912;DHT22;34722;52.108;5.044;2023-04-28T12:09:33;14.50;99.90
48912;DHT22;34722;52.108;5.044;2023-04-28T12:12:01;14.40;99.90
48912;DHT22;34722;52.108;5.044;2023-04-28T12:14:27;14.50;99.90
48912;DHT22;34722;52.108;5.044;2023-04-28T12:16:54;14.60;99.90
48912;DHT22;34722;52.108;5.044;2023-04-28T12:19:21;14.50;99.90
48912;DHT22;34722;52.108;5.044;2023-04-28T12:24:27;14.60;99.90
48912;DHT22;34722;52.108;5.044;2023-04-28T12:26:53;14.60;99.90
48912;DHT22;34722;52.108;5.044;2023-04-28T12:29:36;14.50;99.90
48912;DHT22;34722;52.108;5.044;2023-04-28T12:32:03;14.60;99.90
48912;DHT22;34722;52.108;5.044;2023-04-28T12:34:32;14.60;99.90
48912;DHT22;34722;52.108;5.044;2023-04-28T12:36:59;14.80;99.90
48912;DHT22;34722;52.108;5.044;2023-04-28T12:39:25;14.70;99.90
48912;DHT22;34722;52.108;5.044;2023-04-28T12:41:51;14.80;99.90
48912;DHT22;34722;52.108;5.044;2023-04-28T12:44:20;14.90;99.90
48912;DHT22;34722;52.108;5.044;2023-04-28T12:46:45;15.20;99.90
48912;DHT22;34722;52.108;5.044;2023-04-28T12:49:11;15.50;99.90
48912;DHT22;34722;52.108;5.044;2023-04-28T12:51:37;15.40;99.90
48912;DHT22;34722;52.108;5.044;2023-04-28T12:54:04;15.50;99.90
48912;DHT22;34722;52.108;5.044;2023-04-28T12:56:30;15.60;99.90
48912;DHT22;34722;52.108;5.044;2023-04-28T12:58:55;15.60;99.90
48912;DHT22;34722;52.108;5.044;2023-04-28T13:01:21;15.50;99.90
48912;DHT22;34722;52.108;5.044;2023-04-28T13:03:47;15.40;99.90
48912;DHT22;34722;52.108;5.044;2023-04-28T13:06:12;15.40;99.90
48912;DHT22;34722;52.108;5.044;2023-04-28T13:08:38;15.30;99.90
48912;DHT22;34722;52.108;5.044;2023-04-28T13:11:04;15.30;99.90
48912;DHT22;34722;52.108;5.044;2023-04-28T13:13:30;15.20;99.90
48912;DHT22;34722;52.108;5.044;2023-04-28T13:15:56;15.00;99.90
48912;DHT22;34722;52.108;5.044;2023-04-28T13:18:22;15.10;99.90
48912;DHT22;34722;52.108;5.044;2023-04-28T13:20:48;15.00;99.90
48912;DHT22;34722;52.108;5.044;2023-04-28T13:23:14;15.00;99.90
48912;DHT22;34722;52.108;5.044;2023-04-28T13:25:40;14.80;99.90
48912;DHT22;34722;52.108;5.044;2023-04-28T13:28:05;14.70;99.90
48912;DHT22;34722;52.108;5.044;2023-04-28T13:30:34;14.80;99.90
48912;DHT22;34722;52.108;5.044;2023-04-28T13:33:03;14.50;99.90
48912;DHT22;34722;52.108;5.044;2023-04-28T13:35:28;14.50;99.90
48912;DHT22;34722;52.108;5.044;2023-04-28T13:37:55;14.30;99.90
48912;DHT22;34722;52.108;5.044;2023-04-28T13:40:26;14.20;99.90
48912;DHT22;34722;52.108;5.044;2023-04-28T13:42:53;14.20;99.90
48912;DHT22;34722;52.108;5.044;2023-04-28T13:45:18;14.20;99.90
48912;DHT22;34722;52.108;5.044;2023-04-28T13:47:44;14.20;99.90
48912;DHT22;34722;52.108;5.044;2023-04-28T13:50:09;14.10;99.90
48912;DHT22;34722;52.108;5.044;2023-04-28T13:52:38;14.10;99.90
48912;DHT22;34722;52.108;5.044;2023-04-28T13:55:04;14.10;99.90
48912;DHT22;34722;52.108;5.044;2023-04-28T13:57:30;14.00;99.90
48912;DHT22;34722;52.108;5.044;2023-04-28T13:59:55;14.10;99.90
48912;DHT22;34722;52.108;5.044;2023-04-28T14:02:21;14.10;99.90
48912;DHT22;34722;52.108;5.044;2023-04-28T14:04:50;14.10;99.90
48912;DHT22;34722;52.108;5.044;2023-04-28T14:07:16;14.00;99.90
48912;DHT22;34722;52.108;5.044;2023-04-28T14:09:45;14.10;99.90
48912;DHT22;34722;52.108;5.044;2023-04-28T14:12:11;14.20;99.90
48912;DHT22;34722;52.108;5.044;2023-04-28T14:14:38;14.30;99.90
48912;DHT22;34722;52.108;5.044;2023-04-28T14:17:04;14.40;99.90
48912;DHT22;34722;52.108;5.044;2023-04-28T14:19:30;14.60;99.90
48912;DHT22;34722;52.108;5.044;2023-04-28T14:21:56;14.70;99.90
48912;DHT22;34722;52.108;5.044;2023-04-28T14:24:24;14.70;99.90
48912;DHT22;34722;52.108;5.044;2023-04-28T14:26:51;14.70;99.90
48912;DHT22;34722;52.108;5.044;2023-04-28T14:29:17;14.60;99.90
48912;DHT22;34722;52.108;5.044;2023-04-28T14:31:43;14.60;99.90
48912;DHT22;34722;52.108;5.044;2023-04-28T14:34:09;14.60;99.90
48912;DHT22;34722;52.108;5.044;2023-04-28T14:36:35;14.50;99.90
48912;DHT22;34722;52.108;5.044;2023-04-28T14:39:02;14.40;99.90
48912;DHT22;34722;52.108;5.044;2023-04-28T14:41:30;14.40;99.90
48912;DHT22;34722;52.108;5.044;2023-04-28T14:43:56;14.30;99.90
48912;DHT22;34722;52.108;5.044;2023-04-28T14:46:21;14.10;99.90
48912;DHT22;34722;52.108;5.044;2023-04-28T14:48:51;14.10;99.90
48912;DHT22;34722;52.108;5.044;2023-04-28T14:51:21;14.10;99.90
48912;DHT22;34722;52.108;5.044;2023-04-28T14:53:50;14.00;99.90
48912;DHT22;34722;52.108;5.044;2023-04-28T14:56:16;13.80;99.90
48912;DHT22;34722;52.108;5.044;2023-04-28T14:58:45;13.60;99.90
48912;DHT22;34722;52.108;5.044;2023-04-28T15:01:11;13.60;99.90
48912;DHT22;34722;52.108;5.044;2023-04-28T15:03:41;13.60;99.90
48912;DHT22;34722;52.108;5.044;2023-04-28T15:06:10;13.70;99.90
48912;DHT22;34722;52.108;5.044;2023-04-28T15:08:36;13.60;99.90
48912;DHT22;34722;52.108;5.044;2023-04-28T15:11:05;13.70;99.90
48912;DHT22;34722;52.108;5.044;2023-04-28T15:13:34;13.60;99.90
48912;DHT22;34722;52.108;5.044;2023-04-28T15:16:00;13.50;99.90
48912;DHT22;34722;52.108;5.044;2023-04-28T15:18:27;13.40;99.90
48912;DHT22;34722;52.108;5.044;2023-04-28T15:20:53;13.50;99.90
48912;DHT22;34722;52.108;5.044;2023-04-28T15:23:19;13.40;99.90
48912;DHT22;34722;52.108;5.044;2023-04-28T15:25:45;13.40;99.90
48912;DHT22;34722;52.108;5.044;2023-04-28T15:28:11;13.50;99.90
48912;DHT22;34722;52.108;5.044;2023-04-28T15:30:37;13.60;99.90
48912;DHT22;34722;52.108;5.044;2023-04-28T15:33:03;13.70;99.90
48912;DHT22;34722;52.108;5.044;2023-04-28T15:35:28;13.70;99.90
48912;DHT22;34722;52.108;5.044;2023-04-28T15:37:57;13.80;99.90
48912;DHT22;34722;52.108;5.044;2023-04-28T15:40:22;14.00;99.90
48912;DHT22;34722;52.108;5.044;2023-04-28T15:42:50;14.00;99.90
48912;DHT22;34722;52.108;5.044;2023-04-28T15:45:21;14.00;99.90
48912;DHT22;34722;52.108;5.044;2023-04-28T15:47:47;14.10;99.90
48912;DHT22;34722;52.108;5.044;2023-04-28T15:50:20;14.10;99.90
48912;DHT22;34722;52.108;5.044;2023-04-28T15:52:46;14.20;99.90
48912;DHT22;34722;52.108;5.044;2023-04-28T15:55:14;14.10;99.90
48912;DHT22;34722;52.108;5.044;2023-04-28T15:57:40;14.00;99.90
48912;DHT22;34722;52.108;5.044;2023-04-28T16:00:07;14.00;99.90
48912;DHT22;34722;52.108;5.044;2023-04-28T16:02:34;14.00;99.90
48912;DHT22;34722;52.108;5.044;2023-04-28T16:05:00;14.00;99.90
48912;DHT22;34722;52.108;5.044;2023-04-28T16:07:30;14.00;99.90
48912;DHT22;34722;52.108;5.044;2023-04-28T16:10:03;14.00;99.90
48912;DHT22;34722;52.108;5.044;2023-04-28T16:12:29;14.00;99.90
48912;DHT22;34722;52.108;5.044;2023-04-28T16:14:55;14.00;99.90